sensor_id;sensor_type;location;lat;lon;timestamp;P1;durP1;ratioP1;P2;durP2;ratioP2
68942;SDS011;60852;52.190;4.422;2023-08-21T00:01:05;3.43;;;3.43;;
68942;SDS011;60852;52.190;4.422;2023-08-21T00:03:31;3.22;;;3.22;;
68942;SDS011;60852;52.190;4.422;2023-08-21T00:05:56;3.07;;;3.07;;
68942;SDS011;60852;52.190;4.422;2023-08-21T00:08:22;2.94;;;2.94;;
68942;SDS011;60852;52.190;4.422;2023-08-21T00:10:47;3.34;;;3.34;;
68942;SDS011;60852;52.190;4.422;2023-08-21T00:13:13;3.26;;;3.24;;
68942;SDS011;60852;52.190;4.422;2023-08-21T00:15:38;3.21;;;3.19;;
68942;SDS011;60852;52.190;4.422;2023-08-21T00:18:04;3.31;;;3.31;;
68942;SDS011;60852;52.190;4.422;2023-08-21T00:20:30;3.45;;;3.45;;
68942;SDS011;60852;52.190;4.422;2023-08-21T00:22:56;3.34;;;3.34;;
68942;SDS011;60852;52.190;4.422;2023-08-21T00:25:22;3.23;;;3.23;;
68942;SDS011;60852;52.190;4.422;2023-08-21T00:27:47;3.45;;;3.45;;
68942;SDS011;60852;52.190;4.422;2023-08-21T00:30:13;3.44;;;3.44;;
68942;SDS011;60852;52.190;4.422;2023-08-21T00:32:40;3.24;;;3.24;;
68942;SDS011;60852;52.190;4.422;2023-08-21T00:35:06;3.39;;;3.38;;
68942;SDS011;60852;52.190;4.422;2023-08-21T00:37:31;3.52;;;3.52;;
68942;SDS011;60852;52.190;4.422;2023-08-21T00:39:57;3.14;;;3.14;;
68942;SDS011;60852;52.190;4.422;2023-08-21T00:42:22;3.27;;;3.27;;
68942;SDS011;60852;52.190;4.422;2023-08-21T00:44:48;3.11;;;3.10;;
68942;SDS011;60852;52.190;4.422;2023-08-21T00:47:13;3.40;;;3.38;;
68942;SDS011;60852;52.190;4.422;2023-08-21T00:49:39;3.58;;;3.55;;
68942;SDS011;60852;52.190;4.422;2023-08-21T00:52:06;3.61;;;3.58;;
68942;SDS011;60852;52.190;4.422;2023-08-21T00:54:35;3.20;;;3.19;;
68942;SDS011;60852;52.190;4.422;2023-08-21T00:57:01;3.29;;;3.28;;
68942;SDS011;60852;52.190;4.422;2023-08-21T00:59:27;3.16;;;3.15;;
68942;SDS011;60852;52.190;4.422;2023-08-21T01:01:54;3.17;;;3.17;;
68942;SDS011;60852;52.190;4.422;2023-08-21T01:04:19;3.35;;;3.35;;
68942;SDS011;60852;52.190;4.422;2023-08-21T01:06:46;3.27;;;3.27;;
68942;SDS011;60852;52.190;4.422;2023-08-21T01:17:30;3.51;;;3.51;;
68942;SDS011;60852;52.190;4.422;2023-08-21T01:19:59;3.20;;;3.20;;
68942;SDS011;60852;52.190;4.422;2023-08-21T01:22:26;3.27;;;3.25;;
68942;SDS011;60852;52.190;4.422;2023-08-21T01:24:53;3.37;;;3.35;;
68942;SDS011;60852;52.190;4.422;2023-08-21T01:27:19;3.21;;;3.20;;
68942;SDS011;60852;52.190;4.422;2023-08-21T01:29:46;3.41;;;3.41;;
68942;SDS011;60852;52.190;4.422;2023-08-21T01:32:14;3.11;;;3.11;;
68942;SDS011;60852;52.190;4.422;2023-08-21T01:34:49;3.10;;;3.10;;
68942;SDS011;60852;52.190;4.422;2023-08-21T01:37:17;3.18;;;3.18;;
68942;SDS011;60852;52.190;4.422;2023-08-21T01:39:42;3.16;;;3.16;;
68942;SDS011;60852;52.190;4.422;2023-08-21T01:42:08;3.05;;;3.04;;
68942;SDS011;60852;52.190;4.422;2023-08-21T01:44:33;3.08;;;3.08;;
68942;SDS011;60852;52.190;4.422;2023-08-21T01:46:59;3.09;;;3.09;;
68942;SDS011;60852;52.190;4.422;2023-08-21T01:49:24;3.21;;;3.21;;
68942;SDS011;60852;52.190;4.422;2023-08-21T01:51:50;3.12;;;3.12;;
68942;SDS011;60852;52.190;4.422;2023-08-21T01:54:15;3.38;;;3.38;;
68942;SDS011;60852;52.190;4.422;2023-08-21T01:56:41;2.84;;;2.84;;
68942;SDS011;60852;52.190;4.422;2023-08-21T01:59:06;2.91;;;2.89;;
68942;SDS011;60852;52.190;4.422;2023-08-21T02:01:32;2.97;;;2.97;;
68942;SDS011;60852;52.190;4.422;2023-08-21T02:03:58;3.21;;;3.21;;
68942;SDS011;60852;52.190;4.422;2023-08-21T02:06:23;3.14;;;3.12;;
68942;SDS011;60852;52.190;4.422;2023-08-21T02:08:49;3.12;;;3.10;;
68942;SDS011;60852;52.190;4.422;2023-08-21T02:11:14;3.27;;;3.27;;
68942;SDS011;60852;52.190;4.422;2023-08-21T02:13:40;3.34;;;3.34;;
68942;SDS011;60852;52.190;4.422;2023-08-21T02:16:06;3.13;;;3.13;;
68942;SDS011;60852;52.190;4.422;2023-08-21T02:18:32;3.04;;;3.04;;
68942;SDS011;60852;52.190;4.422;2023-08-21T02:20:57;2.98;;;2.98;;
68942;SDS011;60852;52.190;4.422;2023-08-21T02:23:23;3.14;;;3.13;;
68942;SDS011;60852;52.190;4.422;2023-08-21T02:25:49;2.91;;;2.91;;
68942;SDS011;60852;52.190;4.422;2023-08-21T02:28:15;2.83;;;2.83;;
68942;SDS011;60852;52.190;4.422;2023-08-21T02:30:41;3.12;;;3.11;;
68942;SDS011;60852;52.190;4.422;2023-08-21T02:33:07;3.01;;;2.97;;
68942;SDS011;60852;52.190;4.422;2023-08-21T02:35:32;3.10;;;3.05;;
68942;SDS011;60852;52.190;4.422;2023-08-21T02:37:58;3.20;;;3.15;;
68942;SDS011;60852;52.190;4.422;2023-08-21T02:40:23;2.96;;;2.96;;
68942;SDS011;60852;52.190;4.422;2023-08-21T02:42:49;2.95;;;2.95;;
68942;SDS011;60852;52.190;4.422;2023-08-21T02:45:14;2.99;;;2.99;;
68942;SDS011;60852;52.190;4.422;2023-08-21T02:47:40;3.04;;;3.04;;
68942;SDS011;60852;52.190;4.422;2023-08-21T02:50:06;3.00;;;2.99;;
68942;SDS011;60852;52.190;4.422;2023-08-21T02:52:33;3.13;;;3.13;;
68942;SDS011;60852;52.190;4.422;2023-08-21T02:54:59;3.11;;;3.11;;
68942;SDS011;60852;52.190;4.422;2023-08-21T02:57:26;3.09;;;3.09;;
68942;SDS011;60852;52.190;4.422;2023-08-21T02:59:53;3.49;;;3.49;;
68942;SDS011;60852;52.190;4.422;2023-08-21T03:02:19;3.45;;;3.45;;
68942;SDS011;60852;52.190;4.422;2023-08-21T03:04:45;3.23;;;3.23;;
68942;SDS011;60852;52.190;4.422;2023-08-21T03:07:11;2.96;;;2.96;;
68942;SDS011;60852;52.190;4.422;2023-08-21T03:09:36;3.32;;;3.32;;
68942;SDS011;60852;52.190;4.422;2023-08-21T03:12:05;3.55;;;3.55;;
68942;SDS011;60852;52.190;4.422;2023-08-21T03:14:31;3.30;;;3.30;;
68942;SDS011;60852;52.190;4.422;2023-08-21T03:16:56;3.34;;;3.34;;
68942;SDS011;60852;52.190;4.422;2023-08-21T03:19:22;3.25;;;3.25;;
68942;SDS011;60852;52.190;4.422;2023-08-21T03:21:48;3.46;;;3.46;;
68942;SDS011;60852;52.190;4.422;2023-08-21T03:24:13;3.10;;;3.10;;
68942;SDS011;60852;52.190;4.422;2023-08-21T03:26:39;3.15;;;3.15;;
68942;SDS011;60852;52.190;4.422;2023-08-21T03:29:04;3.01;;;3.01;;
68942;SDS011;60852;52.190;4.422;2023-08-21T03:31:30;3.15;;;3.15;;
68942;SDS011;60852;52.190;4.422;2023-08-21T03:33:56;3.21;;;3.20;;
68942;SDS011;60852;52.190;4.422;2023-08-21T03:36:21;3.31;;;3.31;;
68942;SDS011;60852;52.190;4.422;2023-08-21T03:38:56;3.30;;;3.27;;
68942;SDS011;60852;52.190;4.422;2023-08-21T03:41:22;3.41;;;3.40;;
68942;SDS011;60852;52.190;4.422;2023-08-21T03:43:47;3.16;;;3.16;;
68942;SDS011;60852;52.190;4.422;2023-08-21T03:46:13;3.11;;;3.10;;
68942;SDS011;60852;52.190;4.422;2023-08-21T03:48:38;3.11;;;3.11;;
68942;SDS011;60852;52.190;4.422;2023-08-21T03:51:04;3.36;;;3.36;;
68942;SDS011;60852;52.190;4.422;2023-08-21T03:53:29;3.31;;;3.31;;
68942;SDS011;60852;52.190;4.422;2023-08-21T03:55:55;3.30;;;3.29;;
68942;SDS011;60852;52.190;4.422;2023-08-21T03:58:20;3.58;;;3.58;;
68942;SDS011;60852;52.190;4.422;2023-08-21T04:00:46;3.17;;;3.17;;
68942;SDS011;60852;52.190;4.422;2023-08-21T04:03:11;3.22;;;3.22;;
68942;SDS011;60852;52.190;4.422;2023-08-21T04:05:37;3.40;;;3.40;;
68942;SDS011;60852;52.190;4.422;2023-08-21T04:08:02;3.40;;;3.40;;
68942;SDS011;60852;52.190;4.422;2023-08-21T04:10:28;3.39;;;3.39;;
68942;SDS011;60852;52.190;4.422;2023-08-21T04:12:53;3.28;;;3.28;;
68942;SDS011;60852;52.190;4.422;2023-08-21T04:15:19;3.66;;;3.66;;
68942;SDS011;60852;52.190;4.422;2023-08-21T04:17:44;3.70;;;3.70;;
68942;SDS011;60852;52.190;4.422;2023-08-21T04:20:10;3.82;;;3.82;;
68942;SDS011;60852;52.190;4.422;2023-08-21T04:22:37;3.77;;;3.77;;
68942;SDS011;60852;52.190;4.422;2023-08-21T04:25:03;3.74;;;3.74;;
68942;SDS011;60852;52.190;4.422;2023-08-21T04:27:28;3.76;;;3.76;;
68942;SDS011;60852;52.190;4.422;2023-08-21T04:29:54;3.84;;;3.84;;
68942;SDS011;60852;52.190;4.422;2023-08-21T04:32:19;3.72;;;3.71;;
68942;SDS011;60852;52.190;4.422;2023-08-21T04:34:45;3.45;;;3.44;;
68942;SDS011;60852;52.190;4.422;2023-08-21T04:37:10;3.40;;;3.40;;
68942;SDS011;60852;52.190;4.422;2023-08-21T04:39:35;3.66;;;3.66;;
68942;SDS011;60852;52.190;4.422;2023-08-21T04:42:01;3.82;;;3.82;;
68942;SDS011;60852;52.190;4.422;2023-08-21T04:44:27;3.66;;;3.66;;
68942;SDS011;60852;52.190;4.422;2023-08-21T04:46:52;3.71;;;3.71;;
68942;SDS011;60852;52.190;4.422;2023-08-21T04:49:18;3.74;;;3.74;;
68942;SDS011;60852;52.190;4.422;2023-08-21T04:51:43;3.75;;;3.75;;
68942;SDS011;60852;52.190;4.422;2023-08-21T04:54:09;3.44;;;3.42;;
68942;SDS011;60852;52.190;4.422;2023-08-21T04:56:34;3.68;;;3.65;;
68942;SDS011;60852;52.190;4.422;2023-08-21T04:59:00;3.70;;;3.67;;
68942;SDS011;60852;52.190;4.422;2023-08-21T05:01:25;3.89;;;3.89;;
68942;SDS011;60852;52.190;4.422;2023-08-21T05:03:51;3.76;;;3.75;;
68942;SDS011;60852;52.190;4.422;2023-08-21T05:06:16;3.45;;;3.45;;
68942;SDS011;60852;52.190;4.422;2023-08-21T05:08:42;3.60;;;3.60;;
68942;SDS011;60852;52.190;4.422;2023-08-21T05:11:07;3.52;;;3.52;;
68942;SDS011;60852;52.190;4.422;2023-08-21T05:13:33;3.80;;;3.80;;
68942;SDS011;60852;52.190;4.422;2023-08-21T05:15:58;3.89;;;3.88;;
68942;SDS011;60852;52.190;4.422;2023-08-21T05:18:24;4.05;;;4.05;;
68942;SDS011;60852;52.190;4.422;2023-08-21T05:20:50;4.24;;;4.24;;
68942;SDS011;60852;52.190;4.422;2023-08-21T05:23:21;3.93;;;3.93;;
68942;SDS011;60852;52.190;4.422;2023-08-21T05:25:48;3.97;;;3.93;;
68942;SDS011;60852;52.190;4.422;2023-08-21T05:28:14;3.78;;;3.73;;
68942;SDS011;60852;52.190;4.422;2023-08-21T05:30:40;3.41;;;3.40;;
68942;SDS011;60852;52.190;4.422;2023-08-21T05:33:05;3.45;;;3.45;;
68942;SDS011;60852;52.190;4.422;2023-08-21T05:35:34;3.41;;;3.41;;
68942;SDS011;60852;52.190;4.422;2023-08-21T05:38:03;3.84;;;3.84;;
68942;SDS011;60852;52.190;4.422;2023-08-21T05:40:29;3.63;;;3.61;;
68942;SDS011;60852;52.190;4.422;2023-08-21T05:42:55;3.53;;;3.50;;
68942;SDS011;60852;52.190;4.422;2023-08-21T05:45:20;3.83;;;3.82;;
68942;SDS011;60852;52.190;4.422;2023-08-21T05:47:46;3.79;;;3.79;;
68942;SDS011;60852;52.190;4.422;2023-08-21T05:50:11;3.31;;;3.31;;
68942;SDS011;60852;52.190;4.422;2023-08-21T05:52:37;3.54;;;3.54;;
68942;SDS011;60852;52.190;4.422;2023-08-21T05:55:03;3.64;;;3.64;;
68942;SDS011;60852;52.190;4.422;2023-08-21T05:57:29;4.04;;;4.02;;
68942;SDS011;60852;52.190;4.422;2023-08-21T05:59:55;4.00;;;3.97;;
68942;SDS011;60852;52.190;4.422;2023-08-21T06:02:20;3.96;;;3.92;;
68942;SDS011;60852;52.190;4.422;2023-08-21T06:04:46;4.01;;;4.01;;
68942;SDS011;60852;52.190;4.422;2023-08-21T06:07:11;4.04;;;4.04;;
68942;SDS011;60852;52.190;4.422;2023-08-21T06:09:37;4.31;;;4.26;;
68942;SDS011;60852;52.190;4.422;2023-08-21T06:12:03;4.06;;;4.05;;
68942;SDS011;60852;52.190;4.422;2023-08-21T06:14:29;4.30;;;4.30;;
68942;SDS011;60852;52.190;4.422;2023-08-21T06:17:04;4.32;;;4.32;;
68942;SDS011;60852;52.190;4.422;2023-08-21T06:19:30;4.26;;;4.26;;
68942;SDS011;60852;52.190;4.422;2023-08-21T06:21:56;4.63;;;4.63;;
68942;SDS011;60852;52.190;4.422;2023-08-21T06:24:22;4.83;;;4.83;;
68942;SDS011;60852;52.190;4.422;2023-08-21T06:26:48;4.75;;;4.75;;
68942;SDS011;60852;52.190;4.422;2023-08-21T06:29:14;5.01;;;5.01;;
68942;SDS011;60852;52.190;4.422;2023-08-21T06:31:40;5.29;;;5.29;;
68942;SDS011;60852;52.190;4.422;2023-08-21T06:34:05;5.55;;;5.55;;
68942;SDS011;60852;52.190;4.422;2023-08-21T06:36:31;5.67;;;5.67;;
68942;SDS011;60852;52.190;4.422;2023-08-21T06:38:56;5.96;;;5.96;;
68942;SDS011;60852;52.190;4.422;2023-08-21T06:41:22;5.80;;;5.80;;
68942;SDS011;60852;52.190;4.422;2023-08-21T06:43:47;6.33;;;6.33;;
68942;SDS011;60852;52.190;4.422;2023-08-21T06:46:13;6.44;;;6.44;;
68942;SDS011;60852;52.190;4.422;2023-08-21T06:48:39;6.44;;;6.44;;
68942;SDS011;60852;52.190;4.422;2023-08-21T06:51:08;6.27;;;6.27;;
68942;SDS011;60852;52.190;4.422;2023-08-21T06:53:34;5.77;;;5.77;;
68942;SDS011;60852;52.190;4.422;2023-08-21T06:56:00;4.79;;;4.78;;
68942;SDS011;60852;52.190;4.422;2023-08-21T06:58:25;5.01;;;5.01;;
68942;SDS011;60852;52.190;4.422;2023-08-21T07:00:53;4.91;;;4.90;;
68942;SDS011;60852;52.190;4.422;2023-08-21T07:03:19;4.99;;;4.83;;
68942;SDS011;60852;52.190;4.422;2023-08-21T07:05:58;4.55;;;4.32;;
68942;SDS011;60852;52.190;4.422;2023-08-21T07:08:24;4.92;;;4.54;;
68942;SDS011;60852;52.190;4.422;2023-08-21T07:10:51;4.58;;;4.25;;
68942;SDS011;60852;52.190;4.422;2023-08-21T07:13:18;4.72;;;4.43;;
68942;SDS011;60852;52.190;4.422;2023-08-21T07:15:44;4.33;;;4.04;;
68942;SDS011;60852;52.190;4.422;2023-08-21T07:18:10;4.57;;;4.23;;
68942;SDS011;60852;52.190;4.422;2023-08-21T07:20:36;4.68;;;4.38;;
68942;SDS011;60852;52.190;4.422;2023-08-21T07:23:01;3.94;;;3.67;;
68942;SDS011;60852;52.190;4.422;2023-08-21T07:25:27;4.23;;;3.86;;
68942;SDS011;60852;52.190;4.422;2023-08-21T07:27:56;4.64;;;4.19;;
68942;SDS011;60852;52.190;4.422;2023-08-21T07:30:22;4.51;;;4.01;;
68942;SDS011;60852;52.190;4.422;2023-08-21T07:32:48;4.70;;;4.14;;
68942;SDS011;60852;52.190;4.422;2023-08-21T07:35:14;3.94;;;3.51;;
68942;SDS011;60852;52.190;4.422;2023-08-21T07:37:43;3.87;;;3.45;;
68942;SDS011;60852;52.190;4.422;2023-08-21T07:40:09;3.73;;;3.31;;
68942;SDS011;60852;52.190;4.422;2023-08-21T07:42:34;3.70;;;3.32;;
68942;SDS011;60852;52.190;4.422;2023-08-21T07:45:00;3.57;;;3.19;;
68942;SDS011;60852;52.190;4.422;2023-08-21T07:47:28;3.58;;;3.22;;
68942;SDS011;60852;52.190;4.422;2023-08-21T07:49:54;3.61;;;3.28;;
68942;SDS011;60852;52.190;4.422;2023-08-21T07:52:21;3.78;;;3.47;;
68942;SDS011;60852;52.190;4.422;2023-08-21T07:54:50;3.89;;;3.40;;
68942;SDS011;60852;52.190;4.422;2023-08-21T07:57:17;3.97;;;3.50;;
68942;SDS011;60852;52.190;4.422;2023-08-21T07:59:43;3.61;;;3.26;;
68942;SDS011;60852;52.190;4.422;2023-08-21T08:02:08;3.50;;;3.22;;
68942;SDS011;60852;52.190;4.422;2023-08-21T08:04:35;3.51;;;3.25;;
68942;SDS011;60852;52.190;4.422;2023-08-21T08:07:00;3.23;;;2.99;;
68942;SDS011;60852;52.190;4.422;2023-08-21T08:09:26;3.13;;;2.89;;
68942;SDS011;60852;52.190;4.422;2023-08-21T08:11:51;3.63;;;3.28;;
68942;SDS011;60852;52.190;4.422;2023-08-21T08:14:17;3.43;;;3.08;;
68942;SDS011;60852;52.190;4.422;2023-08-21T08:16:42;3.55;;;3.23;;
68942;SDS011;60852;52.190;4.422;2023-08-21T08:19:08;3.45;;;3.10;;
68942;SDS011;60852;52.190;4.422;2023-08-21T08:21:33;3.71;;;3.29;;
68942;SDS011;60852;52.190;4.422;2023-08-21T08:23:59;3.35;;;2.98;;
68942;SDS011;60852;52.190;4.422;2023-08-21T08:26:24;3.52;;;3.17;;
68942;SDS011;60852;52.190;4.422;2023-08-21T08:28:49;3.10;;;2.77;;
68942;SDS011;60852;52.190;4.422;2023-08-21T08:31:15;3.56;;;3.13;;
68942;SDS011;60852;52.190;4.422;2023-08-21T08:33:41;3.39;;;2.94;;
68942;SDS011;60852;52.190;4.422;2023-08-21T08:36:08;3.06;;;2.73;;
68942;SDS011;60852;52.190;4.422;2023-08-21T08:38:33;3.28;;;2.95;;
68942;SDS011;60852;52.190;4.422;2023-08-21T08:40:59;3.14;;;2.80;;
68942;SDS011;60852;52.190;4.422;2023-08-21T08:43:27;3.05;;;2.75;;
68942;SDS011;60852;52.190;4.422;2023-08-21T08:45:53;2.58;;;2.35;;
68942;SDS011;60852;52.190;4.422;2023-08-21T08:48:22;2.65;;;2.43;;
68942;SDS011;60852;52.190;4.422;2023-08-21T08:50:48;2.61;;;2.45;;
68942;SDS011;60852;52.190;4.422;2023-08-21T08:53:17;2.96;;;2.71;;
68942;SDS011;60852;52.190;4.422;2023-08-21T08:55:44;3.15;;;2.87;;
68942;SDS011;60852;52.190;4.422;2023-08-21T08:58:10;3.01;;;2.78;;
68942;SDS011;60852;52.190;4.422;2023-08-21T09:00:35;2.47;;;2.40;;
68942;SDS011;60852;52.190;4.422;2023-08-21T09:03:01;2.70;;;2.53;;
68942;SDS011;60852;52.190;4.422;2023-08-21T09:05:28;2.96;;;2.74;;
68942;SDS011;60852;52.190;4.422;2023-08-21T09:08:03;3.24;;;3.02;;
68942;SDS011;60852;52.190;4.422;2023-08-21T09:10:29;3.24;;;2.97;;
68942;SDS011;60852;52.190;4.422;2023-08-21T09:12:55;2.96;;;2.72;;
68942;SDS011;60852;52.190;4.422;2023-08-21T09:15:27;2.98;;;2.75;;
68942;SDS011;60852;52.190;4.422;2023-08-21T09:17:53;3.02;;;2.82;;
68942;SDS011;60852;52.190;4.422;2023-08-21T09:20:19;2.97;;;2.77;;
68942;SDS011;60852;52.190;4.422;2023-08-21T09:22:52;2.92;;;2.68;;
68942;SDS011;60852;52.190;4.422;2023-08-21T09:25:20;3.01;;;2.75;;
68942;SDS011;60852;52.190;4.422;2023-08-21T09:27:46;2.66;;;2.57;;
68942;SDS011;60852;52.190;4.422;2023-08-21T09:30:16;2.77;;;2.58;;
68942;SDS011;60852;52.190;4.422;2023-08-21T09:32:55;2.78;;;2.63;;
68942;SDS011;60852;52.190;4.422;2023-08-21T09:35:22;2.43;;;2.35;;
68942;SDS011;60852;52.190;4.422;2023-08-21T09:37:48;2.42;;;2.25;;
68942;SDS011;60852;52.190;4.422;2023-08-21T09:40:14;2.63;;;2.47;;
68942;SDS011;60852;52.190;4.422;2023-08-21T09:42:41;2.61;;;2.45;;
68942;SDS011;60852;52.190;4.422;2023-08-21T09:45:07;2.62;;;2.42;;
68942;SDS011;60852;52.190;4.422;2023-08-21T09:47:33;2.71;;;2.50;;
68942;SDS011;60852;52.190;4.422;2023-08-21T09:49:59;2.43;;;2.26;;
68942;SDS011;60852;52.190;4.422;2023-08-21T09:52:25;2.53;;;2.38;;
68942;SDS011;60852;52.190;4.422;2023-08-21T09:54:53;2.45;;;2.27;;
68942;SDS011;60852;52.190;4.422;2023-08-21T09:57:20;2.31;;;2.16;;
68942;SDS011;60852;52.190;4.422;2023-08-21T09:59:54;2.19;;;2.07;;
68942;SDS011;60852;52.190;4.422;2023-08-21T10:02:20;2.26;;;2.14;;
68942;SDS011;60852;52.190;4.422;2023-08-21T10:04:47;2.15;;;2.03;;
68942;SDS011;60852;52.190;4.422;2023-08-21T10:07:15;2.35;;;2.21;;
68942;SDS011;60852;52.190;4.422;2023-08-21T10:09:45;2.16;;;2.02;;
68942;SDS011;60852;52.190;4.422;2023-08-21T10:12:13;2.41;;;2.25;;
68942;SDS011;60852;52.190;4.422;2023-08-21T10:14:41;2.16;;;2.04;;
68942;SDS011;60852;52.190;4.422;2023-08-21T10:17:07;2.19;;;2.07;;
68942;SDS011;60852;52.190;4.422;2023-08-21T10:19:35;2.19;;;2.06;;
68942;SDS011;60852;52.190;4.422;2023-08-21T10:22:01;2.33;;;2.15;;
68942;SDS011;60852;52.190;4.422;2023-08-21T10:24:28;2.20;;;2.03;;
68942;SDS011;60852;52.190;4.422;2023-08-21T10:27:00;2.31;;;2.16;;
68942;SDS011;60852;52.190;4.422;2023-08-21T10:29:26;3.06;;;2.92;;
68942;SDS011;60852;52.190;4.422;2023-08-21T10:31:58;2.36;;;2.35;;
68942;SDS011;60852;52.190;4.422;2023-08-21T10:34:37;2.22;;;2.11;;
68942;SDS011;60852;52.190;4.422;2023-08-21T10:37:04;2.03;;;1.89;;
68942;SDS011;60852;52.190;4.422;2023-08-21T10:39:34;1.80;;;1.74;;
68942;SDS011;60852;52.190;4.422;2023-08-21T10:49:50;2.05;;;2.00;;
68942;SDS011;60852;52.190;4.422;2023-08-21T10:52:20;2.49;;;2.33;;
68942;SDS011;60852;52.190;4.422;2023-08-21T10:54:50;2.54;;;2.35;;
68942;SDS011;60852;52.190;4.422;2023-08-21T10:57:19;2.34;;;2.18;;
68942;SDS011;60852;52.190;4.422;2023-08-21T10:59:53;2.23;;;2.08;;
68942;SDS011;60852;52.190;4.422;2023-08-21T11:02:26;2.29;;;2.14;;
68942;SDS011;60852;52.190;4.422;2023-08-21T11:04:54;2.23;;;2.08;;
68942;SDS011;60852;52.190;4.422;2023-08-21T11:07:20;2.23;;;2.06;;
68942;SDS011;60852;52.190;4.422;2023-08-21T11:09:46;2.42;;;2.24;;
68942;SDS011;60852;52.190;4.422;2023-08-21T11:12:16;2.48;;;2.28;;
68942;SDS011;60852;52.190;4.422;2023-08-21T11:14:44;2.78;;;2.53;;
68942;SDS011;60852;52.190;4.422;2023-08-21T11:17:10;2.64;;;2.43;;
68942;SDS011;60852;52.190;4.422;2023-08-21T11:19:36;2.55;;;2.33;;
68942;SDS011;60852;52.190;4.422;2023-08-21T11:22:03;2.24;;;2.10;;
68942;SDS011;60852;52.190;4.422;2023-08-21T11:24:40;2.12;;;1.99;;
68942;SDS011;60852;52.190;4.422;2023-08-21T11:27:09;2.67;;;2.51;;
68942;SDS011;60852;52.190;4.422;2023-08-21T11:29:38;2.49;;;2.32;;
68942;SDS011;60852;52.190;4.422;2023-08-21T11:32:11;2.50;;;2.32;;
68942;SDS011;60852;52.190;4.422;2023-08-21T11:34:41;2.39;;;2.21;;
68942;SDS011;60852;52.190;4.422;2023-08-21T11:37:09;2.50;;;2.31;;
68942;SDS011;60852;52.190;4.422;2023-08-21T11:39:39;2.35;;;2.25;;
68942;SDS011;60852;52.190;4.422;2023-08-21T11:42:08;1.94;;;1.94;;
68942;SDS011;60852;52.190;4.422;2023-08-21T11:44:46;2.20;;;2.20;;
68942;SDS011;60852;52.190;4.422;2023-08-21T11:47:13;2.22;;;2.17;;
68942;SDS011;60852;52.190;4.422;2023-08-21T11:49:40;1.91;;;1.90;;
68942;SDS011;60852;52.190;4.422;2023-08-21T11:52:07;2.31;;;2.17;;
68942;SDS011;60852;52.190;4.422;2023-08-21T11:54:34;2.34;;;2.24;;
68942;SDS011;60852;52.190;4.422;2023-08-21T11:57:08;2.25;;;2.19;;
68942;SDS011;60852;52.190;4.422;2023-08-21T11:59:36;2.31;;;2.27;;
68942;SDS011;60852;52.190;4.422;2023-08-21T12:02:07;2.11;;;2.11;;
68942;SDS011;60852;52.190;4.422;2023-08-21T12:04:34;2.17;;;2.17;;
68942;SDS011;60852;52.190;4.422;2023-08-21T12:07:00;2.00;;;2.00;;
68942;SDS011;60852;52.190;4.422;2023-08-21T12:09:25;1.86;;;1.86;;
68942;SDS011;60852;52.190;4.422;2023-08-21T12:11:51;2.27;;;2.21;;
68942;SDS011;60852;52.190;4.422;2023-08-21T12:14:17;2.22;;;2.06;;
68942;SDS011;60852;52.190;4.422;2023-08-21T12:16:43;2.26;;;2.15;;
68942;SDS011;60852;52.190;4.422;2023-08-21T12:19:08;2.02;;;1.98;;
68942;SDS011;60852;52.190;4.422;2023-08-21T12:21:34;2.05;;;2.05;;
68942;SDS011;60852;52.190;4.422;2023-08-21T12:24:03;2.45;;;2.41;;
68942;SDS011;60852;52.190;4.422;2023-08-21T12:26:30;2.07;;;1.98;;
68942;SDS011;60852;52.190;4.422;2023-08-21T12:28:55;2.34;;;2.25;;
68942;SDS011;60852;52.190;4.422;2023-08-21T12:31:21;2.37;;;2.31;;
68942;SDS011;60852;52.190;4.422;2023-08-21T12:33:46;2.56;;;2.45;;
68942;SDS011;60852;52.190;4.422;2023-08-21T12:36:12;2.33;;;2.27;;
68942;SDS011;60852;52.190;4.422;2023-08-21T12:38:37;2.20;;;2.10;;
68942;SDS011;60852;52.190;4.422;2023-08-21T12:41:03;2.42;;;2.25;;
68942;SDS011;60852;52.190;4.422;2023-08-21T12:43:28;2.64;;;2.48;;
68942;SDS011;60852;52.190;4.422;2023-08-21T12:45:55;2.74;;;2.61;;
68942;SDS011;60852;52.190;4.422;2023-08-21T12:48:20;2.42;;;2.36;;
68942;SDS011;60852;52.190;4.422;2023-08-21T12:50:46;2.33;;;2.29;;
68942;SDS011;60852;52.190;4.422;2023-08-21T12:53:11;2.23;;;2.23;;
68942;SDS011;60852;52.190;4.422;2023-08-21T12:55:37;2.40;;;2.31;;
68942;SDS011;60852;52.190;4.422;2023-08-21T12:58:02;2.60;;;2.55;;
68942;SDS011;60852;52.190;4.422;2023-08-21T13:00:28;2.81;;;2.81;;
68942;SDS011;60852;52.190;4.422;2023-08-21T13:02:53;2.92;;;2.92;;
68942;SDS011;60852;52.190;4.422;2023-08-21T13:05:19;2.59;;;2.59;;
68942;SDS011;60852;52.190;4.422;2023-08-21T13:07:44;2.52;;;2.52;;
68942;SDS011;60852;52.190;4.422;2023-08-21T13:10:10;2.52;;;2.52;;
68942;SDS011;60852;52.190;4.422;2023-08-21T13:12:35;2.47;;;2.47;;
68942;SDS011;60852;52.190;4.422;2023-08-21T13:15:01;2.30;;;2.30;;
68942;SDS011;60852;52.190;4.422;2023-08-21T13:17:27;2.42;;;2.42;;
68942;SDS011;60852;52.190;4.422;2023-08-21T13:19:53;2.75;;;2.75;;
68942;SDS011;60852;52.190;4.422;2023-08-21T13:22:18;2.55;;;2.55;;
68942;SDS011;60852;52.190;4.422;2023-08-21T13:24:44;2.42;;;2.42;;
68942;SDS011;60852;52.190;4.422;2023-08-21T13:27:09;2.42;;;2.42;;
68942;SDS011;60852;52.190;4.422;2023-08-21T13:29:35;2.59;;;2.59;;
68942;SDS011;60852;52.190;4.422;2023-08-21T13:32:02;2.79;;;2.79;;
68942;SDS011;60852;52.190;4.422;2023-08-21T13:34:27;2.46;;;2.46;;
68942;SDS011;60852;52.190;4.422;2023-08-21T13:36:53;2.82;;;2.82;;
68942;SDS011;60852;52.190;4.422;2023-08-21T13:39:18;2.86;;;2.86;;
68942;SDS011;60852;52.190;4.422;2023-08-21T13:41:44;2.90;;;2.90;;
68942;SDS011;60852;52.190;4.422;2023-08-21T13:44:09;2.57;;;2.57;;
68942;SDS011;60852;52.190;4.422;2023-08-21T13:46:35;2.54;;;2.54;;
68942;SDS011;60852;52.190;4.422;2023-08-21T13:49:00;2.89;;;2.89;;
68942;SDS011;60852;52.190;4.422;2023-08-21T13:51:26;2.98;;;2.98;;
68942;SDS011;60852;52.190;4.422;2023-08-21T13:53:51;2.94;;;2.94;;
68942;SDS011;60852;52.190;4.422;2023-08-21T13:56:17;3.08;;;3.08;;
68942;SDS011;60852;52.190;4.422;2023-08-21T13:58:42;2.73;;;2.73;;
68942;SDS011;60852;52.190;4.422;2023-08-21T14:01:08;2.58;;;2.58;;
68942;SDS011;60852;52.190;4.422;2023-08-21T14:03:34;2.20;;;2.20;;
68942;SDS011;60852;52.190;4.422;2023-08-21T14:05:59;2.89;;;2.89;;
68942;SDS011;60852;52.190;4.422;2023-08-21T14:08:25;2.25;;;2.25;;
68942;SDS011;60852;52.190;4.422;2023-08-21T14:10:51;4.64;;;4.64;;
68942;SDS011;60852;52.190;4.422;2023-08-21T14:13:16;2.78;;;2.78;;
68942;SDS011;60852;52.190;4.422;2023-08-21T14:15:42;2.03;;;2.03;;
68942;SDS011;60852;52.190;4.422;2023-08-21T14:18:07;2.37;;;2.37;;
68942;SDS011;60852;52.190;4.422;2023-08-21T14:20:33;2.13;;;2.11;;
68942;SDS011;60852;52.190;4.422;2023-08-21T14:22:58;2.19;;;2.14;;
68942;SDS011;60852;52.190;4.422;2023-08-21T14:25:24;2.39;;;2.30;;
68942;SDS011;60852;52.190;4.422;2023-08-21T14:27:50;2.27;;;2.18;;
68942;SDS011;60852;52.190;4.422;2023-08-21T14:30:16;2.09;;;2.09;;
68942;SDS011;60852;52.190;4.422;2023-08-21T14:32:41;2.23;;;2.23;;
68942;SDS011;60852;52.190;4.422;2023-08-21T14:35:07;2.26;;;2.26;;
68942;SDS011;60852;52.190;4.422;2023-08-21T14:37:33;2.09;;;2.08;;
68942;SDS011;60852;52.190;4.422;2023-08-21T14:40:01;2.10;;;2.07;;
68942;SDS011;60852;52.190;4.422;2023-08-21T14:42:32;2.28;;;2.23;;
68942;SDS011;60852;52.190;4.422;2023-08-21T14:44:58;2.48;;;2.48;;
68942;SDS011;60852;52.190;4.422;2023-08-21T14:47:24;2.58;;;2.58;;
68942;SDS011;60852;52.190;4.422;2023-08-21T14:49:49;2.44;;;2.44;;
68942;SDS011;60852;52.190;4.422;2023-08-21T14:52:16;2.21;;;2.21;;
68942;SDS011;60852;52.190;4.422;2023-08-21T14:54:42;2.02;;;2.02;;
68942;SDS011;60852;52.190;4.422;2023-08-21T14:57:07;2.23;;;2.23;;
68942;SDS011;60852;52.190;4.422;2023-08-21T14:59:33;2.17;;;2.17;;